sensor_id;sensor_type;location;lat;lon;timestamp;temperature;humidity
13256;DHT22;37913;48.370;10.930;2022-12-18T00:02:20;-5.20;99.90
13256;DHT22;37913;48.370;10.930;2022-12-18T00:04:47;-5.20;99.90
13256;DHT22;37913;48.370;10.930;2022-12-18T00:07:14;-5.20;99.90
13256;DHT22;37913;48.370;10.930;2022-12-18T00:09:41;-5.20;99.90
13256;DHT22;37913;48.370;10.930;2022-12-18T00:12:08;-5.10;99.90
13256;DHT22;37913;48.370;10.930;2022-12-18T00:14:35;-5.10;99.90
13256;DHT22;37913;48.370;10.930;2022-12-18T00:17:03;-5.10;99.90
13256;DHT22;37913;48.370;10.930;2022-12-18T00:19:30;-5.10;99.90
13256;DHT22;37913;48.370;10.930;2022-12-18T00:21:57;-5.10;99.90
13256;DHT22;37913;48.370;10.930;2022-12-18T00:24:24;-5.10;99.90
13256;DHT22;37913;48.370;10.930;2022-12-18T00:26:53;-5.10;99.90
13256;DHT22;37913;48.370;10.930;2022-12-18T00:29:20;-5.10;99.90
13256;DHT22;37913;48.370;10.930;2022-12-18T00:31:47;-5.10;99.90
13256;DHT22;37913;48.370;10.930;2022-12-18T00:34:15;-5.10;99.90
13256;DHT22;37913;48.370;10.930;2022-12-18T00:36:42;-5.10;99.90
13256;DHT22;37913;48.370;10.930;2022-12-18T00:39:10;-5.10;99.90
13256;DHT22;37913;48.370;10.930;2022-12-18T00:41:37;-5.10;99.90
13256;DHT22;37913;48.370;10.930;2022-12-18T00:44:22;-5.00;99.90
13256;DHT22;37913;48.370;10.930;2022-12-18T00:46:49;-5.00;99.90
13256;DHT22;37913;48.370;10.930;2022-12-18T00:49:18;-5.10;99.90
13256;DHT22;37913;48.370;10.930;2022-12-18T00:51:46;-5.10;99.90
13256;DHT22;37913;48.370;10.930;2022-12-18T00:54:13;-5.10;99.90
13256;DHT22;37913;48.370;10.930;2022-12-18T00:56:40;-5.10;99.90
13256;DHT22;37913;48.370;10.930;2022-12-18T00:59:07;-5.20;99.90
13256;DHT22;37913;48.370;10.930;2022-12-18T01:01:34;-5.20;99.90
13256;DHT22;37913;48.370;10.930;2022-12-18T01:04:02;-5.20;99.90
13256;DHT22;37913;48.370;10.930;2022-12-18T01:06:30;-5.20;99.90
13256;DHT22;37913;48.370;10.930;2022-12-18T01:08:57;-5.30;99.90
13256;DHT22;37913;48.370;10.930;2022-12-18T01:11:24;-5.20;99.90
13256;DHT22;37913;48.370;10.930;2022-12-18T01:13:52;-5.20;99.90
13256;DHT22;37913;48.370;10.930;2022-12-18T01:16:19;-5.20;99.90
13256;DHT22;37913;48.370;10.930;2022-12-18T01:18:46;-5.20;99.90
13256;DHT22;37913;48.370;10.930;2022-12-18T01:21:15;-5.10;99.90
13256;DHT22;37913;48.370;10.930;2022-12-18T01:23:43;-5.30;99.90
13256;DHT22;37913;48.370;10.930;2022-12-18T01:26:13;-5.40;99.90
13256;DHT22;37913;48.370;10.930;2022-12-18T01:28:41;-5.40;99.90
13256;DHT22;37913;48.370;10.930;2022-12-18T01:31:14;-5.40;99.90
13256;DHT22;37913;48.370;10.930;2022-12-18T01:33:42;-5.50;99.90
13256;DHT22;37913;48.370;10.930;2022-12-18T01:36:15;-5.50;99.90
13256;DHT22;37913;48.370;10.930;2022-12-18T01:38:45;-5.60;99.90
13256;DHT22;37913;48.370;10.930;2022-12-18T01:41:13;-5.70;99.90
13256;DHT22;37913;48.370;10.930;2022-12-18T01:43:46;-5.60;99.90
13256;DHT22;37913;48.370;10.930;2022-12-18T01:46:13;-5.50;99.90
13256;DHT22;37913;48.370;10.930;2022-12-18T01:48:41;-5.50;99.90
13256;DHT22;37913;48.370;10.930;2022-12-18T01:51:10;-5.50;99.90
13256;DHT22;37913;48.370;10.930;2022-12-18T01:53:39;-5.60;99.90
13256;DHT22;37913;48.370;10.930;2022-12-18T01:56:10;-5.60;99.90
13256;DHT22;37913;48.370;10.930;2022-12-18T01:58:44;-5.70;99.90
13256;DHT22;37913;48.370;10.930;2022-12-18T02:01:13;-5.70;99.90
13256;DHT22;37913;48.370;10.930;2022-12-18T02:03:41;-5.70;99.90
13256;DHT22;37913;48.370;10.930;2022-12-18T02:06:14;-5.70;99.90
13256;DHT22;37913;48.370;10.930;2022-12-18T02:08:50;-5.70;99.90
13256;DHT22;37913;48.370;10.930;2022-12-18T02:11:27;-5.70;99.90
13256;DHT22;37913;48.370;10.930;2022-12-18T02:14:06;-5.60;99.90
13256;DHT22;37913;48.370;10.930;2022-12-18T02:16:40;-5.60;99.90
13256;DHT22;37913;48.370;10.930;2022-12-18T02:19:20;-5.70;99.90
13256;DHT22;37913;48.370;10.930;2022-12-18T02:21:54;-5.80;99.90
13256;DHT22;37913;48.370;10.930;2022-12-18T02:24:29;-5.80;99.90
13256;DHT22;37913;48.370;10.930;2022-12-18T02:27:01;-5.80;99.90
13256;DHT22;37913;48.370;10.930;2022-12-18T02:29:32;-5.80;99.90
13256;DHT22;37913;48.370;10.930;2022-12-18T02:32:02;-5.90;99.90
13256;DHT22;37913;48.370;10.930;2022-12-18T02:34:34;-5.90;99.90
13256;DHT22;37913;48.370;10.930;2022-12-18T02:37:05;-5.90;99.90
13256;DHT22;37913;48.370;10.930;2022-12-18T02:39:36;-5.90;99.90
13256;DHT22;37913;48.370;10.930;2022-12-18T02:42:05;-5.90;99.90
13256;DHT22;37913;48.370;10.930;2022-12-18T02:44:33;-5.90;99.90
13256;DHT22;37913;48.370;10.930;2022-12-18T02:47:01;-5.80;99.90
13256;DHT22;37913;48.370;10.930;2022-12-18T02:49:34;-5.80;99.90
13256;DHT22;37913;48.370;10.930;2022-12-18T02:52:07;-5.80;99.90
13256;DHT22;37913;48.370;10.930;2022-12-18T02:54:55;-5.80;99.90
13256;DHT22;37913;48.370;10.930;2022-12-18T02:57:33;-5.80;99.90
13256;DHT22;37913;48.370;10.930;2022-12-18T03:00:06;-5.80;99.90
13256;DHT22;37913;48.370;10.930;2022-12-18T03:02:39;-5.70;99.90
13256;DHT22;37913;48.370;10.930;2022-12-18T03:05:14;-5.70;99.90
13256;DHT22;37913;48.370;10.930;2022-12-18T03:07:44;-5.70;99.90
13256;DHT22;37913;48.370;10.930;2022-12-18T03:10:16;-5.70;99.90
13256;DHT22;37913;48.370;10.930;2022-12-18T03:12:51;-5.70;99.90
13256;DHT22;37913;48.370;10.930;2022-12-18T03:15:21;-5.60;99.90
13256;DHT22;37913;48.370;10.930;2022-12-18T03:17:52;-5.60;99.90
13256;DHT22;37913;48.370;10.930;2022-12-18T03:20:23;-5.60;99.90
13256;DHT22;37913;48.370;10.930;2022-12-18T03:22:57;-5.60;99.90
13256;DHT22;37913;48.370;10.930;2022-12-18T03:25:27;-5.60;99.90
13256;DHT22;37913;48.370;10.930;2022-12-18T03:27:57;-5.60;99.90
13256;DHT22;37913;48.370;10.930;2022-12-18T03:30:26;-5.60;99.90
13256;DHT22;37913;48.370;10.930;2022-12-18T03:32:58;-5.70;99.90
13256;DHT22;37913;48.370;10.930;2022-12-18T03:35:29;-5.60;99.90
13256;DHT22;37913;48.370;10.930;2022-12-18T03:37:59;-5.60;99.90
13256;DHT22;37913;48.370;10.930;2022-12-18T03:40:29;-5.70;99.90
13256;DHT22;37913;48.370;10.930;2022-12-18T03:43:03;-5.70;99.90
13256;DHT22;37913;48.370;10.930;2022-12-18T03:45:36;-5.70;99.90
13256;DHT22;37913;48.370;10.930;2022-12-18T03:48:07;-5.70;99.90
13256;DHT22;37913;48.370;10.930;2022-12-18T03:50:41;-5.70;99.90
13256;DHT22;37913;48.370;10.930;2022-12-18T03:53:17;-5.70;99.90
13256;DHT22;37913;48.370;10.930;2022-12-18T03:55:45;-5.70;99.90
13256;DHT22;37913;48.370;10.930;2022-12-18T03:58:17;-5.70;99.90
13256;DHT22;37913;48.370;10.930;2022-12-18T04:00:47;-5.70;99.90
13256;DHT22;37913;48.370;10.930;2022-12-18T04:03:16;-5.70;99.90
13256;DHT22;37913;48.370;10.930;2022-12-18T04:05:48;-5.70;99.90
13256;DHT22;37913;48.370;10.930;2022-12-18T04:08:17;-5.80;99.90
13256;DHT22;37913;48.370;10.930;2022-12-18T04:10:44;-5.80;99.90
13256;DHT22;37913;48.370;10.930;2022-12-18T04:13:11;-5.70;99.90
13256;DHT22;37913;48.370;10.930;2022-12-18T04:15:39;-5.70;99.90
13256;DHT22;37913;48.370;10.930;2022-12-18T04:18:08;-5.70;99.90
13256;DHT22;37913;48.370;10.930;2022-12-18T04:20:35;-4.80;99.90
13256;DHT22;37913;48.370;10.930;2022-12-18T04:23:02;-5.70;99.90
13256;DHT22;37913;48.370;10.930;2022-12-18T04:25:34;-5.70;99.90
13256;DHT22;37913;48.370;10.930;2022-12-18T04:28:01;-5.70;99.90
13256;DHT22;37913;48.370;10.930;2022-12-18T04:30:28;-5.70;99.90
13256;DHT22;37913;48.370;10.930;2022-12-18T04:32:57;-5.70;99.90
13256;DHT22;37913;48.370;10.930;2022-12-18T04:35:23;-5.70;99.90
13256;DHT22;37913;48.370;10.930;2022-12-18T04:37:50;-5.60;99.90
13256;DHT22;37913;48.370;10.930;2022-12-18T04:40:26;-5.60;99.90
13256;DHT22;37913;48.370;10.930;2022-12-18T04:42:53;-5.60;99.90
13256;DHT22;37913;48.370;10.930;2022-12-18T04:45:20;-5.60;99.90
13256;DHT22;37913;48.370;10.930;2022-12-18T04:47:48;-5.60;99.90
13256;DHT22;37913;48.370;10.930;2022-12-18T04:50:16;-5.60;99.90
13256;DHT22;37913;48.370;10.930;2022-12-18T04:52:43;-5.60;99.90
13256;DHT22;37913;48.370;10.930;2022-12-18T04:55:10;-5.60;99.90
13256;DHT22;37913;48.370;10.930;2022-12-18T04:57:37;-5.60;99.90
13256;DHT22;37913;48.370;10.930;2022-12-18T05:00:05;-5.60;99.90
13256;DHT22;37913;48.370;10.930;2022-12-18T05:02:32;-5.60;99.90
13256;DHT22;37913;48.370;10.930;2022-12-18T05:04:59;-5.60;99.90
13256;DHT22;37913;48.370;10.930;2022-12-18T05:07:27;-5.60;99.90
13256;DHT22;37913;48.370;10.930;2022-12-18T05:09:54;-5.70;99.90
13256;DHT22;37913;48.370;10.930;2022-12-18T05:12:21;-5.70;99.90
13256;DHT22;37913;48.370;10.930;2022-12-18T05:14:51;-5.70;99.90
13256;DHT22;37913;48.370;10.930;2022-12-18T05:17:18;-5.60;99.90
13256;DHT22;37913;48.370;10.930;2022-12-18T05:19:45;-5.60;99.90
13256;DHT22;37913;48.370;10.930;2022-12-18T05:22:12;-5.60;99.90
13256;DHT22;37913;48.370;10.930;2022-12-18T05:24:40;-5.70;99.90
13256;DHT22;37913;48.370;10.930;2022-12-18T05:27:08;-5.70;99.90
13256;DHT22;37913;48.370;10.930;2022-12-18T05:29:34;-5.70;99.90
13256;DHT22;37913;48.370;10.930;2022-12-18T05:32:01;-5.70;99.90
13256;DHT22;37913;48.370;10.930;2022-12-18T05:34:29;-5.70;99.90
13256;DHT22;37913;48.370;10.930;2022-12-18T05:36:56;-5.80;99.90
13256;DHT22;37913;48.370;10.930;2022-12-18T05:39:23;-5.70;99.90
13256;DHT22;37913;48.370;10.930;2022-12-18T05:41:53;-5.70;99.90
13256;DHT22;37913;48.370;10.930;2022-12-18T05:44:20;-5.70;99.90
13256;DHT22;37913;48.370;10.930;2022-12-18T05:46:47;-5.70;99.90
13256;DHT22;37913;48.370;10.930;2022-12-18T05:49:14;-5.60;99.90
13256;DHT22;37913;48.370;10.930;2022-12-18T05:51:41;-5.60;99.90
13256;DHT22;37913;48.370;10.930;2022-12-18T05:54:08;-5.60;99.90
13256;DHT22;37913;48.370;10.930;2022-12-18T05:56:34;-5.60;99.90
13256;DHT22;37913;48.370;10.930;2022-12-18T05:59:03;-5.70;99.90
13256;DHT22;37913;48.370;10.930;2022-12-18T06:01:30;-5.60;99.90
13256;DHT22;37913;48.370;10.930;2022-12-18T06:03:57;-5.70;99.90
13256;DHT22;37913;48.370;10.930;2022-12-18T06:06:25;-5.70;99.90
13256;DHT22;37913;48.370;10.930;2022-12-18T06:08:55;-5.60;99.90
13256;DHT22;37913;48.370;10.930;2022-12-18T06:11:24;-5.60;99.90
13256;DHT22;37913;48.370;10.930;2022-12-18T06:13:52;-5.70;99.90
13256;DHT22;37913;48.370;10.930;2022-12-18T06:16:20;-5.60;99.90
13256;DHT22;37913;48.370;10.930;2022-12-18T06:18:47;-5.60;99.90
13256;DHT22;37913;48.370;10.930;2022-12-18T06:21:14;-5.60;99.90
13256;DHT22;37913;48.370;10.930;2022-12-18T06:23:41;-5.60;99.90
13256;DHT22;37913;48.370;10.930;2022-12-18T06:26:10;-5.60;99.90
13256;DHT22;37913;48.370;10.930;2022-12-18T06:28:39;-5.60;99.90
13256;DHT22;37913;48.370;10.930;2022-12-18T06:31:06;-5.60;99.90
13256;DHT22;37913;48.370;10.930;2022-12-18T06:33:35;-5.60;99.90
13256;DHT22;37913;48.370;10.930;2022-12-18T06:36:05;-5.60;99.90
13256;DHT22;37913;48.370;10.930;2022-12-18T06:38:33;-5.60;99.90
13256;DHT22;37913;48.370;10.930;2022-12-18T06:41:00;-5.60;99.90
13256;DHT22;37913;48.370;10.930;2022-12-18T06:43:27;-5.60;99.90
13256;DHT22;37913;48.370;10.930;2022-12-18T06:45:58;-5.60;99.90
13256;DHT22;37913;48.370;10.930;2022-12-18T06:48:25;-5.20;99.90
13256;DHT22;37913;48.370;10.930;2022-12-18T06:50:54;-5.50;99.90
13256;DHT22;37913;48.370;10.930;2022-12-18T06:53:21;-5.50;99.90
13256;DHT22;37913;48.370;10.930;2022-12-18T06:55:49;-5.50;99.90
13256;DHT22;37913;48.370;10.930;2022-12-18T06:58:17;-5.40;99.90
13256;DHT22;37913;48.370;10.930;2022-12-18T07:00:44;-5.50;99.90
13256;DHT22;37913;48.370;10.930;2022-12-18T07:03:13;-5.50;99.90
13256;DHT22;37913;48.370;10.930;2022-12-18T07:05:40;-5.50;99.90
13256;DHT22;37913;48.370;10.930;2022-12-18T07:08:13;-5.50;99.90
13256;DHT22;37913;48.370;10.930;2022-12-18T07:10:43;-5.40;99.90
13256;DHT22;37913;48.370;10.930;2022-12-18T07:13:10;-5.50;99.90
13256;DHT22;37913;48.370;10.930;2022-12-18T07:15:37;-5.50;99.90
13256;DHT22;37913;48.370;10.930;2022-12-18T07:18:04;-5.50;99.90
13256;DHT22;37913;48.370;10.930;2022-12-18T07:20:31;-5.50;99.90
13256;DHT22;37913;48.370;10.930;2022-12-18T07:22:58;-5.50;99.90
13256;DHT22;37913;48.370;10.930;2022-12-18T07:25:26;-5.50;99.90
13256;DHT22;37913;48.370;10.930;2022-12-18T07:27:54;-5.40;99.90
13256;DHT22;37913;48.370;10.930;2022-12-18T07:30:21;-5.50;99.90
13256;DHT22;37913;48.370;10.930;2022-12-18T07:32:47;-5.40;99.90
13256;DHT22;37913;48.370;10.930;2022-12-18T07:35:14;-5.30;99.90
13256;DHT22;37913;48.370;10.930;2022-12-18T07:37:41;-5.30;99.90
13256;DHT22;37913;48.370;10.930;2022-12-18T07:40:10;-5.30;99.90
13256;DHT22;37913;48.370;10.930;2022-12-18T07:42:38;-5.30;99.90
13256;DHT22;37913;48.370;10.930;2022-12-18T07:45:08;-5.30;99.90
13256;DHT22;37913;48.370;10.930;2022-12-18T07:47:36;-5.30;99.90
13256;DHT22;37913;48.370;10.930;2022-12-18T07:50:12;-5.30;99.90
13256;DHT22;37913;48.370;10.930;2022-12-18T07:52:39;-5.20;99.90
13256;DHT22;37913;48.370;10.930;2022-12-18T07:55:07;-5.20;99.90
13256;DHT22;37913;48.370;10.930;2022-12-18T07:57:34;-5.20;99.90
13256;DHT22;37913;48.370;10.930;2022-12-18T08:03:02;-5.20;99.90
13256;DHT22;37913;48.370;10.930;2022-12-18T08:05:45;-5.30;99.90
13256;DHT22;37913;48.370;10.930;2022-12-18T08:08:12;-4.90;99.90
13256;DHT22;37913;48.370;10.930;2022-12-18T08:10:40;-5.30;99.90
13256;DHT22;37913;48.370;10.930;2022-12-18T08:13:07;-4.40;99.90
13256;DHT22;37913;48.370;10.930;2022-12-18T08:15:36;-5.30;99.90
13256;DHT22;37913;48.370;10.930;2022-12-18T08:18:03;-4.90;99.90
13256;DHT22;37913;48.370;10.930;2022-12-18T08:20:30;-5.30;99.90
13256;DHT22;37913;48.370;10.930;2022-12-18T08:22:57;-5.30;99.90
13256;DHT22;37913;48.370;10.930;2022-12-18T08:25:24;-5.30;99.90
13256;DHT22;37913;48.370;10.930;2022-12-18T08:27:52;-5.30;99.90
13256;DHT22;37913;48.370;10.930;2022-12-18T08:30:19;-5.20;99.90
13256;DHT22;37913;48.370;10.930;2022-12-18T08:32:51;-5.10;99.90
13256;DHT22;37913;48.370;10.930;2022-12-18T08:35:18;-5.20;99.90
13256;DHT22;37913;48.370;10.930;2022-12-18T08:37:47;-5.10;99.90
13256;DHT22;37913;48.370;10.930;2022-12-18T08:40:13;-5.00;99.90
13256;DHT22;37913;48.370;10.930;2022-12-18T08:42:40;-4.90;99.90
13256;DHT22;37913;48.370;10.930;2022-12-18T08:45:29;-4.80;99.90
13256;DHT22;37913;48.370;10.930;2022-12-18T08:47:57;-4.70;99.90
13256;DHT22;37913;48.370;10.930;2022-12-18T08:50:24;-4.80;99.90
13256;DHT22;37913;48.370;10.930;2022-12-18T08:52:50;-4.90;99.90
13256;DHT22;37913;48.370;10.930;2022-12-18T08:55:18;-4.80;99.90
13256;DHT22;37913;48.370;10.930;2022-12-18T08:57:48;-4.60;99.90
13256;DHT22;37913;48.370;10.930;2022-12-18T09:00:15;-4.60;99.90
13256;DHT22;37913;48.370;10.930;2022-12-18T09:02:42;-4.50;99.90
13256;DHT22;37913;48.370;10.930;2022-12-18T09:05:10;-4.40;99.90
13256;DHT22;37913;48.370;10.930;2022-12-18T09:07:39;-4.60;99.90
13256;DHT22;37913;48.370;10.930;2022-12-18T09:10:09;-4.60;99.90
13256;DHT22;37913;48.370;10.930;2022-12-18T09:12:36;-4.60;99.90
13256;DHT22;37913;48.370;10.930;2022-12-18T09:15:04;-4.60;99.90
13256;DHT22;37913;48.370;10.930;2022-12-18T09:17:31;-4.40;99.90
13256;DHT22;37913;48.370;10.930;2022-12-18T09:19:58;-4.30;99.90
13256;DHT22;37913;48.370;10.930;2022-12-18T09:22:26;-4.50;99.90
13256;DHT22;37913;48.370;10.930;2022-12-18T09:24:55;-4.50;99.90
13256;DHT22;37913;48.370;10.930;2022-12-18T09:27:22;-4.50;99.90
13256;DHT22;37913;48.370;10.930;2022-12-18T09:29:49;-4.50;99.90
13256;DHT22;37913;48.370;10.930;2022-12-18T09:32:16;-4.40;99.90
13256;DHT22;37913;48.370;10.930;2022-12-18T09:34:43;-4.40;99.90
13256;DHT22;37913;48.370;10.930;2022-12-18T09:37:10;-4.30;99.90
13256;DHT22;37913;48.370;10.930;2022-12-18T09:39:39;-4.20;99.90
13256;DHT22;37913;48.370;10.930;2022-12-18T09:42:06;-4.20;99.90
13256;DHT22;37913;48.370;10.930;2022-12-18T09:44:43;-4.10;99.90
13256;DHT22;37913;48.370;10.930;2022-12-18T09:47:15;-4.00;99.90
13256;DHT22;37913;48.370;10.930;2022-12-18T09:49:46;-3.30;99.90
13256;DHT22;37913;48.370;10.930;2022-12-18T09:52:19;-4.10;99.90
13256;DHT22;37913;48.370;10.930;2022-12-18T09:54:53;-4.10;99.90
13256;DHT22;37913;48.370;10.930;2022-12-18T09:57:23;-4.00;99.90
13256;DHT22;37913;48.370;10.930;2022-12-18T09:59:55;-3.70;99.90
13256;DHT22;37913;48.370;10.930;2022-12-18T10:02:25;-3.90;99.90
13256;DHT22;37913;48.370;10.930;2022-12-18T10:05:02;-3.90;99.90
13256;DHT22;37913;48.370;10.930;2022-12-18T10:07:39;-4.00;99.90
13256;DHT22;37913;48.370;10.930;2022-12-18T10:10:18;-4.20;99.90
13256;DHT22;37913;48.370;10.930;2022-12-18T10:12:53;-4.20;99.90
13256;DHT22;37913;48.370;10.930;2022-12-18T10:15:32;-4.20;99.90
13256;DHT22;37913;48.370;10.930;2022-12-18T10:18:14;-4.00;99.90
13256;DHT22;37913;48.370;10.930;2022-12-18T10:20:46;-4.00;99.90
13256;DHT22;37913;48.370;10.930;2022-12-18T10:23:18;-4.00;99.90
13256;DHT22;37913;48.370;10.930;2022-12-18T10:25:55;-4.20;99.90
13256;DHT22;37913;48.370;10.930;2022-12-18T10:28:25;-4.20;99.90
13256;DHT22;37913;48.370;10.930;2022-12-18T10:30:53;-4.20;99.90
13256;DHT22;37913;48.370;10.930;2022-12-18T10:33:22;-4.20;99.90
13256;DHT22;37913;48.370;10.930;2022-12-18T10:35:51;-4.30;99.90
13256;DHT22;37913;48.370;10.930;2022-12-18T10:38:24;-4.50;99.90
13256;DHT22;37913;48.370;10.930;2022-12-18T10:40:55;-4.40;99.90
13256;DHT22;37913;48.370;10.930;2022-12-18T10:43:24;-4.50;99.90
13256;DHT22;37913;48.370;10.930;2022-12-18T10:46:04;-4.40;99.90
13256;DHT22;37913;48.370;10.930;2022-12-18T10:48:33;-4.20;99.90
13256;DHT22;37913;48.370;10.930;2022-12-18T10:51:02;-4.00;99.90
13256;DHT22;37913;48.370;10.930;2022-12-18T10:53:31;-4.20;99.90
13256;DHT22;37913;48.370;10.930;2022-12-18T10:56:03;-3.90;99.90
13256;DHT22;37913;48.370;10.930;2022-12-18T10:58:34;-4.10;99.90
13256;DHT22;37913;48.370;10.930;2022-12-18T11:01:04;-3.90;99.90
13256;DHT22;37913;48.370;10.930;2022-12-18T11:03:33;-4.00;99.90
13256;DHT22;37913;48.370;10.930;2022-12-18T11:06:05;-4.00;99.90
13256;DHT22;37913;48.370;10.930;2022-12-18T11:08:33;-4.20;99.90
13256;DHT22;37913;48.370;10.930;2022-12-18T11:11:01;-4.00;99.90
13256;DHT22;37913;48.370;10.930;2022-12-18T11:13:30;-4.10;99.90
13256;DHT22;37913;48.370;10.930;2022-12-18T11:15:58;-4.20;99.90
13256;DHT22;37913;48.370;10.930;2022-12-18T11:18:28;-4.20;99.90
13256;DHT22;37913;48.370;10.930;2022-12-18T11:20:59;-4.10;99.90
13256;DHT22;37913;48.370;10.930;2022-12-18T11:23:27;-3.70;99.90
13256;DHT22;37913;48.370;10.930;2022-12-18T11:25:57;-3.90;99.90
13256;DHT22;37913;48.370;10.930;2022-12-18T11:28:45;-3.80;99.90
13256;DHT22;37913;48.370;10.930;2022-12-18T11:31:19;-3.70;99.90
13256;DHT22;37913;48.370;10.930;2022-12-18T11:33:54;-3.70;99.90
13256;DHT22;37913;48.370;10.930;2022-12-18T11:36:23;-3.70;99.90
13256;DHT22;37913;48.370;10.930;2022-12-18T11:38:55;-3.80;99.90
13256;DHT22;37913;48.370;10.930;2022-12-18T11:41:27;-3.70;99.90
13256;DHT22;37913;48.370;10.930;2022-12-18T11:44:14;-3.70;99.90
13256;DHT22;37913;48.370;10.930;2022-12-18T11:46:47;-3.70;99.90
13256;DHT22;37913;48.370;10.930;2022-12-18T11:49:19;-3.50;99.90
13256;DHT22;37913;48.370;10.930;2022-12-18T11:51:51;-3.60;99.90
13256;DHT22;37913;48.370;10.930;2022-12-18T11:54:21;-3.60;93.20
13256;DHT22;37913;48.370;10.930;2022-12-18T11:56:52;-3.60;80.60
13256;DHT22;37913;48.370;10.930;2022-12-18T11:59:32;-3.80;85.90
13256;DHT22;37913;48.370;10.930;2022-12-18T12:02:23;-3.70;94.20
13256;DHT22;37913;48.370;10.930;2022-12-18T12:05:20;-3.60;77.00
13256;DHT22;37913;48.370;10.930;2022-12-18T12:07:55;-3.60;64.30
13256;DHT22;37913;48.370;10.930;2022-12-18T12:10:34;-3.60;37.30
13256;DHT22;37913;48.370;10.930;2022-12-18T12:13:20;-3.60;29.60
13256;DHT22;37913;48.370;10.930;2022-12-18T12:16:01;-3.60;29.50
13256;DHT22;37913;48.370;10.930;2022-12-18T12:18:38;-3.50;18.10
13256;DHT22;37913;48.370;10.930;2022-12-18T12:21:13;-3.40;1.00
13256;DHT22;37913;48.370;10.930;2022-12-18T12:23:48;-3.60;1.00
13256;DHT22;37913;48.370;10.930;2022-12-18T12:26:20;-2.50;1.00
13256;DHT22;37913;48.370;10.930;2022-12-18T12:29:01;-2.00;1.00
13256;DHT22;37913;48.370;10.930;2022-12-18T12:31:48;-3.70;1.00
13256;DHT22;37913;48.370;10.930;2022-12-18T12:34:23;-3.60;1.00
13256;DHT22;37913;48.370;10.930;2022-12-18T12:37:12;-3.50;1.00
13256;DHT22;37913;48.370;10.930;2022-12-18T12:39:44;-3.40;1.00
13256;DHT22;37913;48.370;10.930;2022-12-18T12:42:18;-3.10;1.00
13256;DHT22;37913;48.370;10.930;2022-12-18T12:45:06;-3.20;1.00
13256;DHT22;37913;48.370;10.930;2022-12-18T12:47:38;-3.20;1.00
13256;DHT22;37913;48.370;10.930;2022-12-18T12:50:13;-3.10;1.00
13256;DHT22;37913;48.370;10.930;2022-12-18T12:52:43;-3.10;1.00
13256;DHT22;37913;48.370;10.930;2022-12-18T12:55:16;-3.30;1.00
13256;DHT22;37913;48.370;10.930;2022-12-18T12:57:47;-3.70;1.00
13256;DHT22;37913;48.370;10.930;2022-12-18T13:00:18;-4.00;1.00
13256;DHT22;37913;48.370;10.930;2022-12-18T13:02:54;-4.00;1.00
13256;DHT22;37913;48.370;10.930;2022-12-18T13:05:26;-4.00;1.00
13256;DHT22;37913;48.370;10.930;2022-12-18T13:07:59;-4.00;1.70
13256;DHT22;37913;48.370;10.930;2022-12-18T13:10:35;-3.90;1.00
13256;DHT22;37913;48.370;10.930;2022-12-18T13:13:05;-4.00;1.00
13256;DHT22;37913;48.370;10.930;2022-12-18T13:15:37;-4.00;1.00
13256;DHT22;37913;48.370;10.930;2022-12-18T13:18:18;-4.00;1.00
13256;DHT22;37913;48.370;10.930;2022-12-18T13:20:47;-4.20;1.00
13256;DHT22;37913;48.370;10.930;2022-12-18T13:23:33;-4.10;5.20
13256;DHT22;37913;48.370;10.930;2022-12-18T13:26:30;-4.00;1.00
13256;DHT22;37913;48.370;10.930;2022-12-18T13:28:59;-4.10;1.00
13256;DHT22;37913;48.370;10.930;2022-12-18T13:34:36;-4.40;1.00
13256;DHT22;37913;48.370;10.930;2022-12-18T13:37:39;-4.30;1.30
13256;DHT22;37913;48.370;10.930;2022-12-18T13:43:23;-4.40;1.00
13256;DHT22;37913;48.370;10.930;2022-12-18T13:46:04;-4.40;1.40
13256;DHT22;37913;48.370;10.930;2022-12-18T13:48:33;-4.40;9.40
13256;DHT22;37913;48.370;10.930;2022-12-18T13:51:06;-4.20;1.00
13256;DHT22;37913;48.370;10.930;2022-12-18T13:53:37;-4.30;1.00
13256;DHT22;37913;48.370;10.930;2022-12-18T13:56:06;-4.30;1.00
13256;DHT22;37913;48.370;10.930;2022-12-18T13:58:33;-4.30;1.00
13256;DHT22;37913;48.370;10.930;2022-12-18T14:01:00;-4.40;2.20
13256;DHT22;37913;48.370;10.930;2022-12-18T14:03:30;-4.30;1.00
13256;DHT22;37913;48.370;10.930;2022-12-18T14:06:05;-4.50;3.40
13256;DHT22;37913;48.370;10.930;2022-12-18T14:08:38;-4.50;13.20
13256;DHT22;37913;48.370;10.930;2022-12-18T14:11:07;-4.60;13.90
13256;DHT22;37913;48.370;10.930;2022-12-18T14:13:37;-3.90;11.60
13256;DHT22;37913;48.370;10.930;2022-12-18T14:16:06;-4.60;15.80
13256;DHT22;37913;48.370;10.930;2022-12-18T14:18:42;-4.60;25.00
13256;DHT22;37913;48.370;10.930;2022-12-18T14:21:20;-4.70;34.20
13256;DHT22;37913;48.370;10.930;2022-12-18T14:23:48;-4.60;43.50
13256;DHT22;37913;48.370;10.930;2022-12-18T14:26:24;-4.60;49.80
13256;DHT22;37913;48.370;10.930;2022-12-18T14:28:54;-4.60;44.50
13256;DHT22;37913;48.370;10.930;2022-12-18T14:31:22;-4.60;41.20
13256;DHT22;37913;48.370;10.930;2022-12-18T14:33:49;-4.60;29.00
13256;DHT22;37913;48.370;10.930;2022-12-18T14:36:20;-4.60;31.60
13256;DHT22;37913;48.370;10.930;2022-12-18T14:38:49;-4.80;48.40
13256;DHT22;37913;48.370;10.930;2022-12-18T14:41:18;-4.80;56.30
13256;DHT22;37913;48.370;10.930;2022-12-18T14:43:47;-5.00;70.40
13256;DHT22;37913;48.370;10.930;2022-12-18T14:46:35;-5.00;88.30
13256;DHT22;37913;48.370;10.930;2022-12-18T14:49:04;-5.00;96.30
13256;DHT22;37913;48.370;10.930;2022-12-18T14:51:34;-5.00;93.90
13256;DHT22;37913;48.370;10.930;2022-12-18T14:54:03;-5.00;86.80
13256;DHT22;37913;48.370;10.930;2022-12-18T14:56:31;-5.00;70.70
13256;DHT22;37913;48.370;10.930;2022-12-18T14:59:01;-5.20;67.10
13256;DHT22;37913;48.370;10.930;2022-12-18T15:01:31;-5.20;76.30
13256;DHT22;37913;48.370;10.930;2022-12-18T15:04:00;-5.20;87.60
13256;DHT22;37913;48.370;10.930;2022-12-18T15:06:31;-5.30;90.30
13256;DHT22;37913;48.370;10.930;2022-12-18T15:09:04;-5.20;93.90
13256;DHT22;37913;48.370;10.930;2022-12-18T15:11:44;-5.20;96.50
13256;DHT22;37913;48.370;10.930;2022-12-18T15:14:31;-5.20;95.90
13256;DHT22;37913;48.370;10.930;2022-12-18T15:17:01;-5.30;98.90
13256;DHT22;37913;48.370;10.930;2022-12-18T15:19:37;-5.40;99.90
13256;DHT22;37913;48.370;10.930;2022-12-18T15:22:19;-5.40;99.90
13256;DHT22;37913;48.370;10.930;2022-12-18T15:24:48;-5.30;99.90
13256;DHT22;37913;48.370;10.930;2022-12-18T15:27:24;-5.40;99.90
13256;DHT22;37913;48.370;10.930;2022-12-18T15:30:02;-5.00;99.90
13256;DHT22;37913;48.370;10.930;2022-12-18T15:32:30;-5.30;99.90
13256;DHT22;37913;48.370;10.930;2022-12-18T15:35:03;-5.30;99.90
13256;DHT22;37913;48.370;10.930;2022-12-18T15:37:35;-5.20;99.90
13256;DHT22;37913;48.370;10.930;2022-12-18T15:40:05;-5.00;99.90
13256;DHT22;37913;48.370;10.930;2022-12-18T15:42:32;-5.30;99.90
13256;DHT22;37913;48.370;10.930;2022-12-18T15:45:16;-5.30;99.90
13256;DHT22;37913;48.370;10.930;2022-12-18T15:47:43;-5.30;99.90
13256;DHT22;37913;48.370;10.930;2022-12-18T15:50:10;-5.30;99.90